createdAt,value
2018-12-25T00:00:15.979Z,10.20
2018-12-25T00:02:51.060Z,11.23
2018-12-25T00:05:27.590Z,10.77
2018-12-25T00:08:01.389Z,10.93
2018-12-25T00:10:39.476Z,11.07
2018-12-25T00:13:13.689Z,11.07
2018-12-25T00:15:47.563Z,10.70
2018-12-25T00:18:25.336Z,10.97
2018-12-25T00:21:05.790Z,11.10
2018-12-25T00:23:40.962Z,10.73
2018-12-25T00:26:15.590Z,10.53
2018-12-25T00:28:51.566Z,9.87
2018-12-25T00:31:26.612Z,9.73
2018-12-25T00:34:01.055Z,9.43
2018-12-25T00:36:35.788Z,10.27
2018-12-25T00:39:10.261Z,9.93
2018-12-25T00:41:52.825Z,10.10
2018-12-25T00:44:29.358Z,10.33
2018-12-25T00:47:07.680Z,10.37
2018-12-25T00:49:45.966Z,10.33
2018-12-25T00:52:23.513Z,10.43
2018-12-25T00:54:58.910Z,10.80
2018-12-25T00:57:37.081Z,10.20
2018-12-25T01:00:12.396Z,10.53
2018-12-25T01:02:49.413Z,10.60
2018-12-25T01:05:29.297Z,10.80
2018-12-25T01:08:05.766Z,10.50
2018-12-25T01:10:40.826Z,10.43
2018-12-25T01:13:16.185Z,10.10
2018-12-25T01:15:51.496Z,10.40
2018-12-25T01:18:26.261Z,10.70
2018-12-25T01:21:01.555Z,11.20
2018-12-25T01:23:37.727Z,10.23
2018-12-25T01:26:17.566Z,9.83
2018-12-25T01:28:52.188Z,9.90
2018-12-25T01:31:27.325Z,9.53
2018-12-25T01:34:03.278Z,10.47
2018-12-25T01:36:38.931Z,9.67
2018-12-25T01:39:13.895Z,10.13
2018-12-25T01:41:49.462Z,9.17
2018-12-25T01:44:25.201Z,9.47
2018-12-25T01:46:59.532Z,10.17
2018-12-25T01:49:35.344Z,9.30
2018-12-25T01:52:10.899Z,10.10
2018-12-25T01:54:46.418Z,10.00
2018-12-25T01:57:24.277Z,9.87
2018-12-25T02:00:00.741Z,9.37
2018-12-25T02:02:36.985Z,9.17
2018-12-25T02:05:11.943Z,9.30
2018-12-25T02:07:46.899Z,9.83
2018-12-25T02:10:21.802Z,9.53
2018-12-25T02:12:56.677Z,10.37
2018-12-25T02:15:34.695Z,9.43
2018-12-25T02:18:10.879Z,9.60
2018-12-25T02:20:46.462Z,9.80
2018-12-25T02:23:22.399Z,9.70
2018-12-25T02:25:57.926Z,9.80
2018-12-25T02:28:32.269Z,9.97
2018-12-25T02:31:07.249Z,9.43
2018-12-25T02:33:42.731Z,8.97
2018-12-25T02:36:18.863Z,8.77
2018-12-25T02:38:53.327Z,8.90
2018-12-25T02:41:28.292Z,9.33
2018-12-25T02:44:06.374Z,8.90
2018-12-25T02:46:41.816Z,9.60
2018-12-25T02:49:18.316Z,9.17
2018-12-25T02:51:52.993Z,9.73
2018-12-25T02:54:29.985Z,9.07
2018-12-25T02:57:04.815Z,8.67
2018-12-25T02:59:40.093Z,9.60
2018-12-25T03:02:15.001Z,9.50
2018-12-25T03:04:53.650Z,8.40
2018-12-25T03:07:28.377Z,8.23
2018-12-25T03:10:03.997Z,8.50
2018-12-25T03:12:43.272Z,8.80
2018-12-25T03:15:17.964Z,8.20
2018-12-25T03:17:53.198Z,8.50
2018-12-25T03:20:28.623Z,9.23
2018-12-25T03:23:03.460Z,8.00
2018-12-25T03:25:37.900Z,8.13
2018-12-25T03:28:13.685Z,8.47
2018-12-25T03:30:48.607Z,7.83
2018-12-25T03:33:23.706Z,8.00
2018-12-25T03:35:58.435Z,7.97
2018-12-25T03:38:33.057Z,8.10
2018-12-25T03:41:07.846Z,8.17
2018-12-25T03:43:45.920Z,8.07
2018-12-25T03:46:20.439Z,8.07
2018-12-25T03:48:55.097Z,7.87
2018-12-25T03:51:30.197Z,7.83
2018-12-25T03:54:06.279Z,7.93
2018-12-25T03:56:41.656Z,7.33
2018-12-25T03:59:17.212Z,7.97
2018-12-25T04:01:54.429Z,7.90
2018-12-25T04:04:29.420Z,8.20
2018-12-25T04:07:06.297Z,8.40
2018-12-25T04:09:41.041Z,8.57
2018-12-25T04:12:16.011Z,8.63
2018-12-25T04:14:51.790Z,7.50
2018-12-25T04:17:28.057Z,8.10
2018-12-25T04:20:03.137Z,8.43
2018-12-25T04:22:37.806Z,7.70
2018-12-25T04:25:12.701Z,8.40
2018-12-25T04:27:47.431Z,8.67
2018-12-25T04:30:22.112Z,8.73
2018-12-25T04:32:56.370Z,8.63
2018-12-25T04:35:31.383Z,8.80
2018-12-25T04:38:06.792Z,8.57
2018-12-25T04:40:42.872Z,8.37
2018-12-25T04:43:17.739Z,8.00
2018-12-25T04:45:53.372Z,8.60
2018-12-25T04:48:31.409Z,8.17
2018-12-25T04:51:06.769Z,8.23
2018-12-25T04:53:41.743Z,8.17
2018-12-25T04:56:16.380Z,9.57
2018-12-25T04:58:51.403Z,8.57
2018-12-25T05:01:26.337Z,9.20
2018-12-25T05:04:01.712Z,8.00
2018-12-25T05:06:36.915Z,8.20
2018-12-25T05:09:12.885Z,8.97
2018-12-25T05:11:48.900Z,8.60
2018-12-25T05:14:23.746Z,8.70
2018-12-25T05:16:58.289Z,8.00
2018-12-25T05:19:33.666Z,9.20
2018-12-25T05:22:08.526Z,8.60
2018-12-25T05:24:45.219Z,8.80
2018-12-25T05:27:23.030Z,8.67
2018-12-25T05:30:00.020Z,9.10
2018-12-25T05:32:34.609Z,9.37
2018-12-25T05:35:10.009Z,9.63
2018-12-25T05:37:44.219Z,8.83
2018-12-25T05:40:19.870Z,9.07
2018-12-25T05:42:55.391Z,9.40
2018-12-25T05:45:30.356Z,9.07
2018-12-25T05:48:05.784Z,9.23
2018-12-25T05:50:46.561Z,8.90
2018-12-25T05:53:16.186Z,9.13
2018-12-25T05:55:51.593Z,9.20
2018-12-25T05:58:26.588Z,9.60
2018-12-25T06:01:00.652Z,9.10
2018-12-25T06:03:36.383Z,9.67
2018-12-25T06:06:11.271Z,9.10
2018-12-25T06:08:46.745Z,9.13
2018-12-25T06:11:21.373Z,10.37
2018-12-25T06:13:56.942Z,10.17
2018-12-25T06:16:32.167Z,9.77
2018-12-25T06:19:06.567Z,9.53
2018-12-25T06:21:42.342Z,9.97
2018-12-25T06:24:17.631Z,9.80
2018-12-25T06:26:54.720Z,10.13
2018-12-25T06:29:30.673Z,10.10
2018-12-25T06:32:06.212Z,9.57
2018-12-25T06:34:40.840Z,9.57
2018-12-25T06:37:16.307Z,10.07
2018-12-25T06:39:52.454Z,9.90
2018-12-25T06:42:28.384Z,9.80
2018-12-25T06:45:04.570Z,10.57
2018-12-25T06:47:41.049Z,9.67
2018-12-25T06:50:17.115Z,10.17
2018-12-25T06:52:52.782Z,10.60
2018-12-25T06:55:27.265Z,10.30
2018-12-25T06:58:03.397Z,10.47
2018-12-25T07:00:39.380Z,10.20
2018-12-25T07:03:16.048Z,10.00
2018-12-25T07:06:02.860Z,10.27
2018-12-25T07:08:39.680Z,10.83
2018-12-25T07:11:16.285Z,10.03
2018-12-25T07:13:51.894Z,10.90
2018-12-25T07:16:28.267Z,9.90
2018-12-25T07:19:05.930Z,10.73
2018-12-25T07:21:42.986Z,11.10
2018-12-25T07:24:55.552Z,10.87
2018-12-25T07:27:37.110Z,10.90
2018-12-25T07:30:14.006Z,11.93
2018-12-25T07:32:49.978Z,12.67
2018-12-25T07:35:26.922Z,12.50
2018-12-25T07:38:02.432Z,12.10
2018-12-25T07:40:38.121Z,11.93
2018-12-25T07:43:13.773Z,13.13
2018-12-25T07:45:53.368Z,13.40
2018-12-25T07:48:29.108Z,13.40
2018-12-25T07:51:20.724Z,13.17
2018-12-25T07:53:55.059Z,13.30
2018-12-25T07:56:31.439Z,12.70
2018-12-25T07:59:11.857Z,13.03
2018-12-25T08:01:47.954Z,13.07
2018-12-25T08:04:25.393Z,13.77
2018-12-25T08:07:02.228Z,13.80
2018-12-25T08:09:37.879Z,14.07
2018-12-25T08:12:33.125Z,13.90
2018-12-25T08:15:10.464Z,13.73
2018-12-25T08:17:44.763Z,13.83
2018-12-25T08:20:21.261Z,13.60
2018-12-25T08:23:02.554Z,13.40
2018-12-25T08:25:35.659Z,13.87
2018-12-25T08:28:11.869Z,13.13
2018-12-25T08:30:51.072Z,13.10
2018-12-25T08:33:25.981Z,13.90
2018-12-25T08:36:00.376Z,13.50
2018-12-25T08:40:38.407Z,13.80
2018-12-25T08:43:23.284Z,13.27
2018-12-25T08:46:07.683Z,13.93
2018-12-25T08:48:54.943Z,12.67
2018-12-25T08:51:40.529Z,12.67
2018-12-25T08:54:27.193Z,13.00
2018-12-25T08:57:12.784Z,12.80
2018-12-25T09:00:02.170Z,13.03
2018-12-25T09:02:49.822Z,12.77
2018-12-25T09:05:39.300Z,12.30
2018-12-25T09:08:24.248Z,12.10
2018-12-25T09:14:15.912Z,12.43
2018-12-25T09:16:59.442Z,12.10
2018-12-25T09:19:43.320Z,12.57
2018-12-25T09:22:27.223Z,12.73
2018-12-25T09:25:11.556Z,12.23
2018-12-25T09:27:56.225Z,12.27
2018-12-25T09:33:38.555Z,11.77
2018-12-25T09:39:15.088Z,12.63
2018-12-25T09:42:00.968Z,12.20
2018-12-25T09:47:36.679Z,11.93
2018-12-25T09:50:24.114Z,12.40
2018-12-25T09:53:08.643Z,11.87
2018-12-25T09:55:52.710Z,11.80
2018-12-25T09:58:24.998Z,11.33
2018-12-25T10:01:08.426Z,11.40
2018-12-25T10:03:54.965Z,11.90
2018-12-25T10:06:39.737Z,12.07
2018-12-25T10:09:24.022Z,10.30
2018-12-25T10:12:07.780Z,10.83
2018-12-25T10:14:54.034Z,10.53
2018-12-25T10:20:29.644Z,10.17
2018-12-25T10:23:13.525Z,9.73
2018-12-25T10:25:58.425Z,10.17
2018-12-25T10:28:32.469Z,10.60
2018-12-25T10:31:17.668Z,9.90
2018-12-25T10:34:01.135Z,10.53
2018-12-25T10:36:45.447Z,10.57
2018-12-25T10:39:30.623Z,11.20
2018-12-25T10:42:17.311Z,9.77
2018-12-25T10:45:00.791Z,10.03
2018-12-25T10:47:44.135Z,9.40
2018-12-25T10:50:27.987Z,9.43
2018-12-25T10:56:06.979Z,9.80
2018-12-25T10:58:50.592Z,9.23
2018-12-25T11:01:37.061Z,8.80
2018-12-25T11:04:23.047Z,8.97
2018-12-25T11:07:10.211Z,7.90
2018-12-25T11:09:56.842Z,9.10
2018-12-25T11:12:42.166Z,8.70
2018-12-25T11:15:25.622Z,8.70
2018-12-25T11:18:10.133Z,8.90
2018-12-25T11:20:59.024Z,8.87
2018-12-25T11:23:43.149Z,8.90
2018-12-25T11:26:31.111Z,8.30
2018-12-25T11:29:15.384Z,8.17
2018-12-25T11:32:01.040Z,8.50
2018-12-25T11:34:46.537Z,7.97
2018-12-25T11:37:34.400Z,7.93
2018-12-25T11:40:23.339Z,9.67
2018-12-25T11:43:11.864Z,8.93
2018-12-25T11:51:49.770Z,8.90
2018-12-25T11:54:33.925Z,8.97
2018-12-25T11:57:20.349Z,9.43
2018-12-25T12:00:05.214Z,8.80
2018-12-25T12:02:50.803Z,9.27
2018-12-25T12:05:24.047Z,8.37
2018-12-25T12:08:13.156Z,8.90
2018-12-25T12:10:58.997Z,8.73
2018-12-25T12:16:25.349Z,8.73
2018-12-25T12:19:10.815Z,9.47
2018-12-25T12:22:15.203Z,9.00
2018-12-25T12:25:07.985Z,8.67
2018-12-25T12:27:55.550Z,8.63
2018-12-25T12:30:46.469Z,9.07
2018-12-25T12:36:40.133Z,9.43
2018-12-25T12:42:27.076Z,9.30
2018-12-25T12:45:11.690Z,8.73
2018-12-25T12:47:57.404Z,8.97
2018-12-25T12:50:41.749Z,8.60
2018-12-25T12:53:26.643Z,9.20
2018-12-25T12:56:14.617Z,8.63
2018-12-25T12:59:04.776Z,9.30
2018-12-25T13:01:51.239Z,9.67
2018-12-25T13:04:35.942Z,9.83
2018-12-25T13:07:22.831Z,9.83
2018-12-25T13:10:09.646Z,9.00
2018-12-25T13:12:55.475Z,8.67
2018-12-25T13:15:40.554Z,9.27
2018-12-25T13:18:25.294Z,9.30
2018-12-25T13:21:14.202Z,8.87
2018-12-25T13:24:00.176Z,9.57
2018-12-25T13:26:46.059Z,9.70
2018-12-25T13:32:44.650Z,8.93
2018-12-25T13:35:28.769Z,9.20
2018-12-25T13:38:13.054Z,9.37
2018-12-25T13:41:03.223Z,9.90
2018-12-25T13:43:49.380Z,10.20
2018-12-25T13:46:34.686Z,9.53
2018-12-25T13:49:19.168Z,9.37
2018-12-25T13:52:02.695Z,10.17
2018-12-25T13:54:47.183Z,10.07
2018-12-25T13:57:32.594Z,10.27
2018-12-25T14:00:17.120Z,10.23
2018-12-25T14:03:01.514Z,10.60
2018-12-25T14:08:49.803Z,10.83
2018-12-25T14:11:33.691Z,11.10
2018-12-25T14:17:09.698Z,11.43
2018-12-25T14:19:57.372Z,10.70
2018-12-25T14:22:40.883Z,10.90
2018-12-25T14:25:24.815Z,11.77
2018-12-25T14:27:58.266Z,12.43
2018-12-25T14:30:49.518Z,11.63
2018-12-25T14:33:34.521Z,11.27
2018-12-25T14:36:18.438Z,11.83
2018-12-25T14:39:02.532Z,11.33
2018-12-25T14:41:46.911Z,11.67
2018-12-25T14:47:38.832Z,11.43
2018-12-25T14:50:23.228Z,12.13
2018-12-25T14:53:06.887Z,12.13
2018-12-25T14:55:51.022Z,13.33
2018-12-25T15:01:28.794Z,12.83
2018-12-25T15:04:15.744Z,12.20
2018-12-25T15:06:59.987Z,12.07
2018-12-25T15:09:44.325Z,11.07
2018-12-25T15:15:37.762Z,11.93
2018-12-25T15:21:23.799Z,12.23
2018-12-25T15:24:08.293Z,12.27
2018-12-25T15:26:52.639Z,12.03
2018-12-25T15:29:38.485Z,11.23
2018-12-25T15:32:22.038Z,11.90
2018-12-25T15:35:09.933Z,11.73
2018-12-25T15:37:58.670Z,12.27
2018-12-25T15:40:43.707Z,13.30
2018-12-25T15:43:28.636Z,12.40
2018-12-25T15:46:12.095Z,12.83
2018-12-25T15:48:57.849Z,12.60
2018-12-25T15:51:41.998Z,12.53
2018-12-25T15:54:26.611Z,13.10
2018-12-25T15:57:40.015Z,11.97
2018-12-25T16:00:08.677Z,13.00
2018-12-25T16:02:56.407Z,13.23
2018-12-25T16:05:42.404Z,13.10
2018-12-25T16:08:26.208Z,12.13
2018-12-25T16:11:13.097Z,12.47
2018-12-25T16:14:01.963Z,12.47
2018-12-25T16:16:49.142Z,12.23
2018-12-25T16:19:40.006Z,12.03
2018-12-25T16:22:24.271Z,13.47
2018-12-25T16:25:07.484Z,12.57
2018-12-25T16:27:51.371Z,12.37
2018-12-25T16:30:36.981Z,12.43
2018-12-25T16:33:21.468Z,12.03
2018-12-25T16:36:11.055Z,12.67
2018-12-25T16:38:56.145Z,12.63
2018-12-25T16:41:40.934Z,12.33
2018-12-25T16:44:28.665Z,13.13
2018-12-25T16:47:20.360Z,12.43
2018-12-25T16:50:04.704Z,13.23
2018-12-25T16:52:48.442Z,12.43
2018-12-25T16:55:32.226Z,13.53
2018-12-25T16:58:16.657Z,12.63
2018-12-25T17:01:01.251Z,12.60
2018-12-25T17:06:32.170Z,12.80
2018-12-25T17:09:16.020Z,12.67
2018-12-25T17:12:00.381Z,12.50
2018-12-25T17:14:44.274Z,12.60
2018-12-25T17:17:33.786Z,12.17
2018-12-25T17:20:21.576Z,12.50
2018-12-25T17:22:54.071Z,12.97
2018-12-25T17:25:39.708Z,12.23
2018-12-25T17:28:27.772Z,12.97
2018-12-25T17:31:10.809Z,12.60
2018-12-25T17:33:55.074Z,12.50
2018-12-25T17:36:42.420Z,12.37
2018-12-25T17:39:26.705Z,12.57
2018-12-25T17:42:11.383Z,12.80
2018-12-25T17:44:55.194Z,13.23
2018-12-25T17:47:38.922Z,12.87
2018-12-25T17:50:22.563Z,12.63
2018-12-25T17:53:06.866Z,12.23
2018-12-25T17:55:50.049Z,12.87
2018-12-25T17:58:43.382Z,13.73
2018-12-25T18:01:31.546Z,13.47
2018-12-25T18:04:16.904Z,14.07
2018-12-25T18:07:01.543Z,14.47
2018-12-25T18:09:34.820Z,14.60
2018-12-25T18:12:26.600Z,13.83
2018-12-25T18:15:10.921Z,14.73
2018-12-25T18:17:58.666Z,14.00
2018-12-25T18:20:31.652Z,14.53
2018-12-25T18:23:05.438Z,14.30
2018-12-25T18:25:58.649Z,14.10
2018-12-25T18:28:43.082Z,14.00
2018-12-25T18:31:29.856Z,14.60
2018-12-25T18:34:16.045Z,15.20
2018-12-25T18:37:02.613Z,14.63
2018-12-25T18:39:47.907Z,14.27
2018-12-25T18:42:36.534Z,14.63
2018-12-25T18:45:21.337Z,15.23
2018-12-25T18:48:05.760Z,15.07
2018-12-25T18:53:39.091Z,14.20
2018-12-25T18:56:25.583Z,14.57
2018-12-25T18:59:11.226Z,13.97
2018-12-25T19:01:55.920Z,14.37
2018-12-25T19:04:44.037Z,14.00
2018-12-25T19:07:18.578Z,15.57
2018-12-25T19:10:05.579Z,14.63
2018-12-25T19:12:56.220Z,14.63
2018-12-25T19:15:41.238Z,14.23
2018-12-25T19:18:25.460Z,14.53
2018-12-25T19:21:11.591Z,14.83
2018-12-25T19:23:56.325Z,14.60
2018-12-25T19:26:41.555Z,14.57
2018-12-25T19:29:26.321Z,15.57
2018-12-25T19:32:08.923Z,15.63
2018-12-25T19:34:55.648Z,15.67
2018-12-25T19:37:42.633Z,14.87
2018-12-25T19:40:27.895Z,15.07
2018-12-25T19:43:12.286Z,15.83
2018-12-25T19:45:56.856Z,15.97
2018-12-25T19:48:41.909Z,15.17
2018-12-25T19:51:27.231Z,15.70
2018-12-25T19:56:59.378Z,14.97
2018-12-25T19:59:34.088Z,16.50
2018-12-25T20:02:19.202Z,16.33
2018-12-25T20:05:03.631Z,17.80
2018-12-25T20:10:36.084Z,17.17
2018-12-25T20:13:21.439Z,17.30
2018-12-25T20:16:07.997Z,18.77
2018-12-25T20:18:56.461Z,18.00
2018-12-25T20:21:41.343Z,17.53
2018-12-25T20:24:26.201Z,17.43
2018-12-25T20:27:10.651Z,17.70
2018-12-25T20:29:56.719Z,17.43
2018-12-25T20:32:42.125Z,17.83
2018-12-25T20:35:26.811Z,17.53
2018-12-25T20:38:11.773Z,18.40
2018-12-25T20:40:57.336Z,18.93
2018-12-25T20:43:41.625Z,19.37
2018-12-25T20:49:19.528Z,19.90
2018-12-25T20:57:54.587Z,19.03
2018-12-25T21:01:06.628Z,18.27
2018-12-25T21:04:18.433Z,19.50
2018-12-25T21:07:03.953Z,19.73
2018-12-25T21:09:49.695Z,18.27
2018-12-25T21:12:35.413Z,19.10
2018-12-25T21:15:21.563Z,18.73
2018-12-25T21:18:12.616Z,20.00
2018-12-25T21:20:58.947Z,20.47
2018-12-25T21:23:44.091Z,19.67
2018-12-25T21:29:32.040Z,20.60
2018-12-25T21:32:19.245Z,20.30
2018-12-25T21:35:05.548Z,21.27
2018-12-25T21:37:52.227Z,22.33
2018-12-25T21:40:41.862Z,21.23
2018-12-25T21:43:28.292Z,22.23
2018-12-25T21:46:14.973Z,22.20
2018-12-25T21:49:25.483Z,20.87
2018-12-25T21:52:10.980Z,22.17
2018-12-25T21:54:57.618Z,22.77
2018-12-25T21:57:46.731Z,23.37
2018-12-25T22:00:32.638Z,23.73
2018-12-25T22:03:18.717Z,23.63
2018-12-25T22:06:05.169Z,25.47
2018-12-25T22:11:45.987Z,23.27
2018-12-25T22:14:33.797Z,24.80
2018-12-25T22:17:20.436Z,24.47
2018-12-25T22:20:03.904Z,25.77
2018-12-25T22:22:52.182Z,24.13
2018-12-25T22:25:38.304Z,24.33
2018-12-25T22:28:27.218Z,24.10
2018-12-25T22:31:14.018Z,25.40
2018-12-25T22:34:04.942Z,24.30
2018-12-25T22:36:51.242Z,24.77
2018-12-25T22:39:37.205Z,23.50
2018-12-25T22:42:28.303Z,23.50
2018-12-25T22:48:18.823Z,24.30
2018-12-25T22:51:05.201Z,25.63
2018-12-25T22:53:56.179Z,25.23
2018-12-25T22:57:02.404Z,25.77
2018-12-25T23:02:44.365Z,25.03
2018-12-25T23:05:35.127Z,26.23
2018-12-25T23:11:13.829Z,24.57
2018-12-25T23:16:49.029Z,23.53
2018-12-25T23:19:38.540Z,25.53
2018-12-25T23:25:16.737Z,25.60
2018-12-25T23:28:03.281Z,25.67
2018-12-25T23:30:51.086Z,25.67
2018-12-25T23:33:37.028Z,24.33
2018-12-25T23:39:38.375Z,25.00
2018-12-25T23:48:17.372Z,25.37
2018-12-25T23:53:49.728Z,24.00
2018-12-25T23:56:36.132Z,26.20
